createdAt,value
2023-02-15T00:02:01.012Z,17.52
2023-02-15T00:04:28.160Z,15.00
2023-02-15T00:06:56.268Z,16.90
2023-02-15T00:09:23.029Z,16.17
2023-02-15T00:11:49.729Z,17.67
2023-02-15T00:14:18.462Z,16.83
2023-02-15T00:16:45.944Z,17.25
2023-02-15T00:19:13.583Z,17.67
2023-02-15T00:21:41.165Z,17.35
2023-02-15T00:24:11.222Z,17.27
2023-02-15T00:26:39.506Z,15.55
2023-02-15T00:29:06.491Z,17.35
2023-02-15T00:31:34.147Z,16.25
2023-02-15T00:34:02.721Z,15.68
2023-02-15T00:36:29.733Z,15.32
2023-02-15T00:38:57.095Z,15.32
2023-02-15T00:41:25.519Z,16.90
2023-02-15T00:43:52.215Z,15.98
2023-02-15T00:46:18.995Z,18.35
2023-02-15T00:48:45.737Z,16.95
2023-02-15T00:51:12.440Z,17.83
2023-02-15T00:53:39.151Z,16.55
2023-02-15T00:56:05.801Z,16.65
2023-02-15T00:58:33.828Z,17.70
2023-02-15T01:01:05.413Z,15.95
2023-02-15T01:03:32.321Z,16.65
2023-02-15T01:05:59.320Z,17.13
2023-02-15T01:08:26.636Z,16.90
2023-02-15T01:10:53.399Z,15.45
2023-02-15T01:13:20.487Z,16.33
2023-02-15T01:15:54.251Z,16.35
2023-02-15T01:18:21.161Z,16.00
2023-02-15T01:20:47.803Z,16.52
2023-02-15T01:23:14.898Z,16.02
2023-02-15T01:25:42.296Z,16.75
2023-02-15T01:28:09.097Z,16.70
2023-02-15T01:30:35.870Z,17.27
2023-02-15T01:33:04.083Z,15.45
2023-02-15T01:35:30.738Z,16.75
2023-02-15T01:37:57.723Z,17.73
2023-02-15T01:40:25.627Z,16.65
2023-02-15T01:42:53.119Z,17.20
2023-02-15T01:45:22.734Z,15.82
2023-02-15T01:47:53.184Z,14.48
2023-02-15T01:50:26.534Z,15.43
2023-02-15T01:55:25.993Z,16.35
2023-02-15T01:57:53.252Z,15.38
2023-02-15T02:00:20.381Z,15.45
2023-02-15T02:03:17.485Z,15.70
2023-02-15T02:05:45.628Z,16.25
2023-02-15T02:08:13.352Z,15.25
2023-02-15T02:10:40.030Z,15.32
2023-02-15T02:13:07.828Z,16.02
2023-02-15T02:15:44.835Z,15.45
2023-02-15T02:18:28.210Z,16.13
2023-02-15T02:21:27.961Z,14.30
2023-02-15T02:24:19.198Z,15.93
2023-02-15T02:27:19.443Z,13.52
2023-02-15T02:30:19.122Z,13.88
2023-02-15T02:33:08.689Z,13.43
2023-02-15T02:35:43.852Z,14.32
2023-02-15T02:38:17.732Z,15.23
2023-02-15T02:40:54.566Z,15.10
2023-02-15T02:43:29.616Z,15.00
2023-02-15T02:46:01.901Z,15.35
2023-02-15T02:48:33.260Z,15.07
2023-02-15T02:51:00.173Z,15.38
2023-02-15T02:53:30.727Z,14.10
2023-02-15T02:56:02.171Z,15.45
2023-02-15T02:58:34.712Z,15.52
2023-02-15T03:01:10.812Z,14.88
2023-02-15T03:03:42.930Z,14.88
2023-02-15T03:06:13.430Z,14.73
2023-02-15T03:08:43.836Z,14.73
2023-02-15T03:11:12.570Z,15.93
2023-02-15T03:13:41.403Z,14.20
2023-02-15T03:16:10.829Z,13.88
2023-02-15T03:18:42.049Z,16.60
2023-02-15T03:21:12.134Z,16.08
2023-02-15T03:23:40.125Z,16.67
2023-02-15T03:26:09.025Z,16.73
2023-02-15T03:28:39.821Z,15.43
2023-02-15T03:31:09.384Z,16.13
2023-02-15T03:33:41.814Z,15.73
2023-02-15T03:36:18.632Z,14.65
2023-02-15T03:38:52.671Z,15.70
2023-02-15T03:41:21.640Z,16.77
2023-02-15T03:43:55.094Z,16.40
2023-02-15T03:46:25.629Z,16.40
2023-02-15T03:48:57.398Z,16.45
2023-02-15T03:51:29.217Z,16.52
2023-02-15T03:53:56.956Z,16.30
2023-02-15T03:56:23.706Z,15.65
2023-02-15T03:58:50.452Z,16.08
2023-02-15T04:01:26.623Z,16.63
2023-02-15T04:04:00.582Z,15.25
2023-02-15T04:06:27.281Z,15.80
2023-02-15T04:08:53.948Z,15.35
2023-02-15T04:11:20.649Z,15.18
2023-02-15T04:13:47.291Z,14.82
2023-02-15T04:16:14.167Z,16.23
2023-02-15T04:18:42.611Z,14.77
2023-02-15T04:21:10.778Z,15.70
2023-02-15T04:23:37.593Z,13.82
2023-02-15T04:26:04.810Z,15.13
2023-02-15T04:28:32.057Z,14.32
2023-02-15T04:30:58.854Z,14.98
2023-02-15T04:33:25.567Z,14.43
2023-02-15T04:35:52.235Z,14.40
2023-02-15T04:38:20.259Z,14.13
2023-02-15T04:40:50.733Z,13.48
2023-02-15T04:43:17.408Z,14.23
2023-02-15T04:45:49.312Z,14.57
2023-02-15T04:48:16.603Z,15.60
2023-02-15T04:50:43.593Z,15.40
2023-02-15T04:53:10.499Z,14.50
2023-02-15T04:55:38.677Z,15.77
2023-02-15T04:58:05.647Z,16.38
2023-02-15T05:00:32.357Z,16.13
2023-02-15T05:02:59.252Z,16.40
2023-02-15T05:05:26.163Z,17.40
2023-02-15T05:07:53.043Z,18.02
2023-02-15T05:10:20.157Z,16.63
2023-02-15T05:12:48.249Z,17.63
2023-02-15T05:15:15.120Z,16.35
2023-02-15T05:17:41.777Z,16.45
2023-02-15T05:20:09.192Z,18.17
2023-02-15T05:22:36.544Z,18.55
2023-02-15T05:25:03.429Z,19.30
2023-02-15T05:27:30.152Z,17.67
2023-02-15T05:29:58.461Z,17.05
2023-02-15T05:32:25.413Z,17.75
2023-02-15T05:34:52.130Z,17.33
2023-02-15T05:37:18.842Z,18.95
2023-02-15T05:39:45.625Z,19.58
2023-02-15T05:42:12.297Z,18.17
2023-02-15T05:44:38.994Z,18.70
2023-02-15T05:47:07.145Z,18.13
2023-02-15T05:49:34.047Z,19.73
2023-02-15T05:52:00.759Z,19.55
2023-02-15T05:54:27.578Z,20.42
2023-02-15T05:56:54.326Z,19.25
2023-02-15T05:59:21.166Z,18.00
2023-02-15T06:01:48.179Z,20.42
2023-02-15T06:04:16.283Z,21.70
2023-02-15T06:06:43.055Z,21.10
2023-02-15T06:09:11.598Z,20.98
2023-02-15T06:11:38.236Z,23.05
2023-02-15T06:14:05.065Z,21.90
2023-02-15T06:16:31.790Z,23.23
2023-02-15T06:18:58.447Z,28.10
2023-02-15T06:21:26.725Z,27.17
2023-02-15T06:23:53.398Z,24.02
2023-02-15T06:26:20.215Z,26.85
2023-02-15T06:28:46.902Z,29.70
2023-02-15T06:31:13.652Z,29.23
2023-02-15T06:33:40.415Z,32.25
2023-02-15T06:36:07.553Z,33.58
2023-02-15T06:38:35.937Z,33.28
2023-02-15T06:41:02.607Z,33.22
2023-02-15T06:43:29.414Z,34.88
2023-02-15T06:45:56.286Z,33.10
2023-02-15T06:48:23.089Z,34.42
2023-02-15T06:50:49.825Z,35.78
2023-02-15T06:53:16.534Z,32.25
2023-02-15T06:55:44.560Z,33.85
2023-02-15T06:58:11.219Z,33.10
2023-02-15T07:00:37.899Z,35.10
2023-02-15T07:03:04.567Z,32.03
2023-02-15T07:05:34.331Z,30.33
2023-02-15T07:08:01.859Z,29.95
2023-02-15T07:10:29.373Z,29.40
2023-02-15T07:12:57.613Z,28.48
2023-02-15T07:15:24.662Z,29.30
2023-02-15T07:17:51.709Z,29.50
2023-02-15T07:20:21.262Z,32.08
2023-02-15T07:22:48.617Z,29.42
2023-02-15T07:25:15.333Z,32.03
2023-02-15T07:27:42.171Z,28.83
2023-02-15T07:30:12.953Z,28.85
2023-02-15T07:32:39.910Z,30.13
2023-02-15T07:35:06.813Z,31.17
2023-02-15T07:37:33.482Z,32.05
2023-02-15T07:40:00.239Z,28.92
2023-02-15T07:42:26.978Z,29.17
2023-02-15T07:44:53.976Z,28.70
2023-02-15T07:47:22.187Z,28.20
2023-02-15T07:49:48.954Z,28.40
2023-02-15T07:52:15.646Z,28.33
2023-02-15T07:54:42.299Z,28.63
2023-02-15T07:57:09.232Z,27.60
2023-02-15T07:59:35.929Z,28.02
2023-02-15T08:02:02.637Z,27.15
2023-02-15T08:04:30.791Z,27.42
2023-02-15T08:06:57.559Z,27.92
2023-02-15T08:09:24.310Z,27.23
2023-02-15T08:11:51.090Z,26.17
2023-02-15T08:14:19.354Z,25.67
2023-02-15T08:16:47.814Z,30.38
2023-02-15T08:19:16.957Z,27.75
2023-02-15T08:21:46.674Z,28.17
2023-02-15T08:24:17.726Z,26.23
2023-02-15T08:26:45.277Z,31.10
2023-02-15T08:29:12.083Z,28.75
2023-02-15T08:31:39.123Z,28.23
2023-02-15T08:34:06.316Z,29.42
2023-02-15T08:36:33.760Z,25.40
2023-02-15T08:39:04.989Z,29.08
2023-02-15T08:41:33.714Z,31.17
2023-02-15T08:44:02.358Z,28.33
2023-02-15T08:46:30.966Z,27.45
2023-02-15T08:48:58.616Z,27.80
2023-02-15T08:51:27.467Z,25.92
2023-02-15T08:53:55.787Z,25.17
2023-02-15T08:56:25.955Z,27.63
2023-02-15T08:58:53.939Z,27.10
2023-02-15T09:01:23.715Z,28.25
2023-02-15T09:03:51.884Z,26.42
2023-02-15T09:06:18.645Z,27.30
2023-02-15T09:08:45.371Z,27.27
2023-02-15T09:11:13.803Z,26.05
2023-02-15T09:13:42.016Z,28.08
2023-02-15T09:16:10.278Z,25.35
2023-02-15T09:18:38.937Z,26.98
2023-02-15T09:21:07.851Z,26.50
2023-02-15T09:23:34.659Z,24.98
2023-02-15T09:26:06.256Z,27.30
2023-02-15T09:28:33.266Z,29.02
2023-02-15T09:31:11.365Z,27.58
2023-02-15T09:33:39.417Z,26.83
2023-02-15T09:36:14.581Z,27.85
2023-02-15T09:38:41.336Z,26.48
2023-02-15T09:41:25.368Z,27.85
2023-02-15T09:44:01.653Z,27.33
2023-02-15T09:46:45.362Z,27.33
2023-02-15T09:49:23.506Z,27.33
2023-02-15T09:52:09.060Z,26.58
2023-02-15T09:54:53.449Z,27.85
2023-02-15T09:57:29.077Z,27.77
2023-02-15T10:00:03.197Z,28.00
2023-02-15T10:02:45.335Z,26.77
2023-02-15T10:05:25.686Z,25.40
2023-02-15T10:08:18.314Z,28.17
2023-02-15T10:10:58.045Z,26.63
2023-02-15T10:13:36.086Z,28.70
2023-02-15T10:16:16.414Z,26.58
2023-02-15T10:19:06.112Z,28.35
2023-02-15T10:21:47.505Z,26.85
2023-02-15T10:24:42.093Z,26.13
2023-02-15T10:27:13.637Z,26.17
2023-02-15T10:29:50.203Z,26.75
2023-02-15T10:32:23.012Z,25.55
2023-02-15T10:34:53.863Z,26.55
2023-02-15T10:37:48.236Z,27.00
2023-02-15T10:40:26.061Z,27.00
2023-02-15T10:43:17.218Z,30.35
2023-02-15T10:45:53.893Z,29.98
2023-02-15T10:48:44.952Z,26.48
2023-02-15T10:51:21.357Z,26.60
2023-02-15T10:54:06.705Z,27.95
2023-02-15T10:56:40.339Z,27.73
2023-02-15T10:59:26.267Z,28.52
2023-02-15T11:01:59.434Z,28.33
2023-02-15T11:04:49.729Z,27.33
2023-02-15T11:07:22.650Z,28.73
2023-02-15T11:09:52.641Z,28.33
2023-02-15T11:12:24.195Z,28.83
2023-02-15T11:14:56.887Z,28.17
2023-02-15T11:17:28.515Z,28.83
2023-02-15T11:20:05.400Z,30.85
2023-02-15T11:22:34.654Z,28.48
2023-02-15T11:25:02.901Z,27.92
2023-02-15T11:27:32.524Z,26.67
2023-02-15T11:30:03.424Z,29.27
2023-02-15T11:32:33.564Z,28.08
2023-02-15T11:35:06.481Z,28.75
2023-02-15T11:37:41.101Z,27.55
2023-02-15T11:40:20.490Z,26.42
2023-02-15T11:42:48.993Z,26.42
2023-02-15T11:45:23.697Z,26.88
2023-02-15T11:47:50.588Z,26.10
2023-02-15T11:50:22.939Z,25.65
2023-02-15T11:52:52.455Z,25.95
2023-02-15T11:55:21.586Z,23.50
2023-02-15T11:57:53.122Z,24.63
2023-02-15T12:00:28.809Z,24.83
2023-02-15T12:02:58.250Z,24.50
2023-02-15T12:05:27.689Z,23.88
2023-02-15T12:08:02.329Z,23.88
2023-02-15T12:10:33.081Z,23.13
2023-02-15T12:13:21.188Z,23.00
2023-02-15T12:15:50.043Z,25.25
2023-02-15T12:18:21.377Z,23.77
2023-02-15T12:20:50.126Z,24.73
2023-02-15T12:23:18.858Z,23.38
2023-02-15T12:25:52.579Z,23.88
2023-02-15T12:28:26.728Z,24.15
2023-02-15T12:30:55.999Z,24.20
2023-02-15T12:33:28.335Z,22.98
2023-02-15T12:36:01.608Z,22.65
2023-02-15T12:41:02.464Z,23.73
2023-02-15T12:43:33.321Z,21.05
2023-02-15T12:46:22.945Z,23.05
2023-02-15T12:49:07.517Z,23.13
2023-02-15T12:51:44.221Z,23.40
2023-02-15T12:54:30.375Z,21.38
2023-02-15T12:56:57.198Z,21.90
2023-02-15T12:59:24.265Z,22.10
2023-02-15T13:01:52.812Z,21.83
2023-02-15T13:04:24.573Z,22.40
2023-02-15T13:06:54.049Z,22.85
2023-02-15T13:09:38.781Z,22.13
2023-02-15T13:12:16.422Z,22.48
2023-02-15T13:14:46.837Z,21.67
2023-02-15T13:17:16.815Z,21.80
2023-02-15T13:19:47.617Z,20.65
2023-02-15T13:22:17.509Z,21.60
2023-02-15T13:24:49.058Z,21.98
2023-02-15T13:27:19.639Z,22.35
2023-02-15T13:29:49.467Z,23.05
2023-02-15T13:32:26.317Z,23.63
2023-02-15T13:34:55.780Z,21.45
2023-02-15T13:37:35.663Z,23.88
2023-02-15T13:40:09.212Z,22.48
2023-02-15T13:42:41.490Z,22.40
2023-02-15T13:45:26.961Z,21.90
2023-02-15T13:48:00.690Z,22.00
2023-02-15T13:50:47.285Z,23.38
2023-02-15T13:53:30.874Z,22.90
2023-02-15T13:56:07.501Z,22.27
2023-02-15T13:59:01.218Z,23.63
2023-02-15T14:01:38.099Z,22.15
2023-02-15T14:04:42.360Z,22.85
2023-02-15T14:10:11.790Z,20.73
2023-02-15T14:12:56.674Z,21.67
2023-02-15T14:15:32.382Z,22.08
2023-02-15T14:18:11.377Z,21.15
2023-02-15T14:20:52.799Z,21.02
2023-02-15T14:23:34.508Z,22.38
2023-02-15T14:26:07.382Z,21.10
2023-02-15T14:28:44.256Z,21.35
2023-02-15T14:31:14.876Z,19.58
2023-02-15T14:33:54.802Z,19.33
2023-02-15T14:36:21.787Z,19.63
2023-02-15T14:38:58.042Z,19.92
2023-02-15T14:41:30.644Z,18.45
2023-02-15T14:44:05.415Z,19.00
2023-02-15T14:46:37.705Z,18.67
2023-02-15T14:49:12.280Z,17.90
2023-02-15T14:52:03.193Z,17.58
2023-02-15T14:54:55.814Z,17.80
2023-02-15T14:57:28.671Z,17.48
2023-02-15T14:59:58.180Z,17.92
2023-02-15T15:02:28.275Z,17.80
2023-02-15T15:05:07.125Z,17.58
2023-02-15T15:07:42.650Z,17.05
2023-02-15T15:10:40.854Z,17.35
2023-02-15T15:13:36.647Z,16.55
2023-02-15T15:16:44.690Z,17.48
2023-02-15T15:19:13.152Z,17.38
2023-02-15T15:22:03.841Z,16.40
2023-02-15T15:24:51.342Z,15.15
2023-02-15T15:27:43.971Z,15.43
2023-02-15T15:30:48.614Z,15.70
2023-02-15T15:33:44.461Z,15.10
2023-02-15T15:36:44.354Z,16.27
2023-02-15T15:39:26.856Z,14.70
2023-02-15T15:42:02.363Z,15.43
2023-02-15T15:45:02.738Z,15.75
2023-02-15T15:47:46.841Z,15.80
2023-02-15T15:50:18.322Z,15.85
2023-02-15T15:52:49.226Z,14.80
2023-02-15T15:55:22.452Z,15.80
2023-02-15T15:57:52.620Z,14.57
2023-02-15T16:00:37.757Z,14.88
2023-02-15T16:03:05.221Z,15.10
2023-02-15T16:05:39.679Z,17.80
2023-02-15T16:08:06.779Z,18.17
2023-02-15T16:10:36.328Z,21.38
2023-02-15T16:13:03.143Z,22.60
2023-02-15T16:15:37.135Z,24.80
2023-02-15T16:18:04.818Z,26.73
2023-02-15T16:20:33.726Z,27.90
2023-02-15T16:23:13.595Z,28.08
2023-02-15T16:25:49.869Z,29.02
2023-02-15T16:28:17.472Z,28.95
2023-02-15T16:30:44.309Z,29.98
2023-02-15T16:33:13.092Z,29.45
2023-02-15T16:35:41.954Z,29.52
2023-02-15T16:38:11.049Z,29.52
2023-02-15T16:40:53.620Z,30.23
2023-02-15T16:43:25.471Z,30.85
2023-02-15T16:45:54.408Z,30.02
2023-02-15T16:48:24.987Z,31.05
2023-02-15T16:50:54.660Z,30.92
2023-02-15T16:53:24.966Z,32.70
2023-02-15T16:55:55.930Z,30.35
2023-02-15T16:58:30.703Z,29.52
2023-02-15T17:01:00.472Z,28.95
2023-02-15T17:03:28.000Z,29.25
2023-02-15T17:05:56.979Z,28.10
2023-02-15T17:08:30.075Z,29.52
2023-02-15T17:11:16.652Z,27.88
2023-02-15T17:14:14.892Z,27.65
2023-02-15T17:16:46.436Z,30.42
2023-02-15T17:19:17.717Z,31.02
2023-02-15T17:21:50.435Z,28.60
2023-02-15T17:24:19.653Z,30.75
2023-02-15T17:26:53.928Z,27.60
2023-02-15T17:29:30.490Z,27.65
2023-02-15T17:31:58.517Z,28.20
2023-02-15T17:34:50.026Z,26.33
2023-02-15T17:37:26.531Z,27.13
2023-02-15T17:39:53.673Z,29.98
2023-02-15T17:42:21.825Z,29.52
2023-02-15T17:44:49.437Z,28.98
2023-02-15T17:47:18.050Z,29.42
2023-02-15T17:49:45.272Z,28.02
2023-02-15T17:52:13.613Z,26.50
2023-02-15T17:54:40.410Z,27.10
2023-02-15T17:57:12.880Z,28.92
2023-02-15T17:59:40.985Z,28.03
2023-02-15T18:02:10.640Z,27.08
2023-02-15T18:04:37.787Z,28.33
2023-02-15T18:07:04.585Z,30.05
2023-02-15T18:09:31.425Z,29.63
2023-02-15T18:11:58.520Z,30.77
2023-02-15T18:14:25.307Z,33.00
2023-02-15T18:16:54.560Z,35.20
2023-02-15T18:19:23.528Z,36.05
2023-02-15T18:21:51.129Z,38.22
2023-02-15T18:24:19.534Z,35.97
2023-02-15T18:26:47.088Z,35.28
2023-02-15T18:29:14.022Z,38.13
2023-02-15T18:31:42.153Z,38.70
2023-02-15T18:34:23.041Z,38.70
2023-02-15T18:36:49.895Z,38.50
2023-02-15T18:39:41.594Z,36.80
2023-02-15T18:42:23.679Z,39.75
2023-02-15T18:44:54.382Z,41.53
2023-02-15T18:47:21.019Z,43.83
2023-02-15T18:49:49.360Z,42.40
2023-02-15T18:52:17.425Z,40.15
2023-02-15T18:54:44.879Z,40.17
2023-02-15T18:57:14.842Z,37.78
2023-02-15T18:59:42.022Z,39.08
2023-02-15T19:02:13.211Z,39.40
2023-02-15T19:04:40.024Z,35.70
2023-02-15T19:07:16.699Z,35.03
2023-02-15T19:09:45.619Z,33.95
2023-02-15T19:12:13.756Z,34.17
2023-02-15T19:14:40.590Z,33.50
2023-02-15T19:17:14.807Z,34.47
2023-02-15T19:19:41.532Z,33.92
2023-02-15T19:22:13.464Z,40.60
2023-02-15T19:24:43.690Z,40.95
2023-02-15T19:27:20.506Z,36.00
2023-02-15T19:29:47.821Z,34.22
2023-02-15T19:32:14.708Z,33.65
2023-02-15T19:34:41.463Z,31.42
2023-02-15T19:37:20.077Z,28.27
2023-02-15T19:39:46.807Z,27.73
2023-02-15T19:42:14.733Z,26.75
2023-02-15T19:44:41.571Z,26.42
2023-02-15T19:47:12.563Z,27.10
2023-02-15T19:49:39.372Z,24.75
2023-02-15T19:52:06.714Z,24.90
2023-02-15T19:54:35.599Z,25.52
2023-02-15T19:57:02.420Z,24.50
2023-02-15T19:59:31.576Z,23.90
2023-02-15T20:01:58.975Z,23.85
2023-02-15T20:04:26.239Z,24.13
2023-02-15T20:06:55.952Z,23.73
2023-02-15T20:09:26.200Z,25.85
2023-02-15T20:11:55.025Z,23.65
2023-02-15T20:14:23.150Z,26.30
2023-02-15T20:16:50.346Z,23.88
2023-02-15T20:19:17.021Z,24.42
2023-02-15T20:21:45.855Z,24.67
2023-02-15T20:24:15.954Z,24.10
2023-02-15T20:26:43.200Z,23.95
2023-02-15T20:29:13.494Z,22.70
2023-02-15T20:31:40.298Z,23.92
2023-02-15T20:34:07.205Z,23.00
2023-02-15T20:36:34.174Z,22.73
2023-02-15T20:39:04.155Z,24.15
2023-02-15T20:41:30.880Z,23.63
2023-02-15T20:43:57.547Z,25.33
2023-02-15T20:46:26.002Z,25.88
2023-02-15T20:48:52.732Z,24.50
2023-02-15T20:51:21.432Z,25.63
2023-02-15T20:53:48.257Z,29.20
2023-02-15T20:56:19.688Z,27.88
2023-02-15T20:58:46.444Z,28.58
2023-02-15T21:01:13.292Z,28.77
2023-02-15T21:03:41.520Z,27.83
2023-02-15T21:06:12.653Z,30.10
2023-02-15T21:08:39.439Z,35.50
2023-02-15T21:11:16.608Z,32.58
2023-02-15T21:13:43.634Z,34.05
2023-02-15T21:16:10.477Z,34.42
2023-02-15T21:18:37.236Z,35.75
2023-02-15T21:21:06.438Z,35.45
2023-02-15T21:23:35.551Z,36.00
2023-02-15T21:26:02.274Z,36.38
2023-02-15T21:28:29.445Z,39.95
2023-02-15T21:30:57.490Z,39.50
2023-02-15T21:33:25.688Z,40.65
2023-02-15T21:35:54.629Z,39.08
2023-02-15T21:38:26.199Z,39.60
2023-02-15T21:40:52.940Z,43.22
2023-02-15T21:43:22.187Z,40.40
2023-02-15T21:45:48.867Z,39.58
2023-02-15T21:48:15.840Z,38.47
2023-02-15T21:50:43.114Z,41.22
2023-02-15T21:53:13.415Z,36.92
2023-02-15T21:55:41.671Z,39.78
2023-02-15T21:58:17.151Z,41.20
2023-02-15T22:00:43.912Z,41.50
2023-02-15T22:03:12.376Z,38.05
2023-02-15T22:05:39.092Z,39.70
2023-02-15T22:08:11.091Z,37.50
2023-02-15T22:10:37.916Z,37.63
2023-02-15T22:13:09.108Z,37.90
2023-02-15T22:15:37.281Z,36.70
2023-02-15T22:18:05.081Z,32.65
2023-02-15T22:20:32.239Z,31.95
2023-02-15T22:22:58.921Z,30.17
2023-02-15T22:25:27.090Z,31.10
2023-02-15T22:27:54.650Z,31.83
2023-02-15T22:30:27.879Z,28.45
2023-02-15T22:32:55.943Z,30.02
2023-02-15T22:35:26.001Z,30.60
2023-02-15T22:37:52.772Z,28.10
2023-02-15T22:40:20.488Z,26.65
2023-02-15T22:42:49.900Z,26.00
2023-02-15T22:45:19.542Z,26.58
2023-02-15T22:47:49.707Z,24.67
2023-02-15T22:50:19.430Z,23.88
2023-02-15T22:52:46.107Z,24.33
2023-02-15T22:55:15.097Z,24.20
2023-02-15T22:57:43.047Z,23.27
2023-02-15T23:00:14.997Z,25.67
2023-02-15T23:02:41.697Z,24.38
2023-02-15T23:05:17.067Z,24.08
2023-02-15T23:07:43.854Z,23.65
2023-02-15T23:10:12.038Z,22.77
2023-02-15T23:12:38.727Z,22.95
2023-02-15T23:15:10.762Z,23.73
2023-02-15T23:17:37.431Z,24.08
2023-02-15T23:20:04.667Z,23.67
2023-02-15T23:22:32.848Z,24.60
2023-02-15T23:24:59.466Z,24.10
2023-02-15T23:27:26.180Z,22.55
2023-02-15T23:29:52.938Z,24.20
2023-02-15T23:32:19.734Z,25.48
2023-02-15T23:34:46.836Z,27.45
2023-02-15T23:37:15.570Z,26.95
2023-02-15T23:39:43.782Z,28.65
2023-02-15T23:42:13.318Z,26.20
2023-02-15T23:44:41.042Z,27.15
2023-02-15T23:47:19.505Z,24.67
2023-02-15T23:49:46.347Z,26.33
2023-02-15T23:52:13.756Z,25.67
2023-02-15T23:54:40.474Z,25.40
2023-02-15T23:57:11.361Z,27.67
2023-02-15T23:59:43.107Z,26.63
